sensor_id;sensor_type;location;lat;lon;timestamp;P1;durP1;ratioP1;P2;durP2;ratioP2
27303;SDS011;14791;52.392;13.092;2023-03-01T00:01:51;5.80;;;5.30;;
27303;SDS011;14791;52.392;13.092;2023-03-01T00:04:20;5.27;;;4.93;;
27303;SDS011;14791;52.392;13.092;2023-03-01T00:06:49;5.20;;;4.80;;
27303;SDS011;14791;52.392;13.092;2023-03-01T00:09:18;4.90;;;4.60;;
27303;SDS011;14791;52.392;13.092;2023-03-01T00:11:47;5.23;;;4.80;;
27303;SDS011;14791;52.392;13.092;2023-03-01T00:14:17;4.83;;;4.53;;
27303;SDS011;14791;52.392;13.092;2023-03-01T00:16:45;5.47;;;5.07;;
27303;SDS011;14791;52.392;13.092;2023-03-01T00:19:21;4.63;;;4.33;;
27303;SDS011;14791;52.392;13.092;2023-03-01T00:21:46;5.27;;;4.87;;
27303;SDS011;14791;52.392;13.092;2023-03-01T00:24:15;4.90;;;4.60;;
27303;SDS011;14791;52.392;13.092;2023-03-01T00:26:44;4.87;;;4.33;;
27303;SDS011;14791;52.392;13.092;2023-03-01T00:29:13;4.07;;;3.87;;
27303;SDS011;14791;52.392;13.092;2023-03-01T00:31:42;4.73;;;4.43;;
27303;SDS011;14791;52.392;13.092;2023-03-01T00:34:11;4.27;;;4.07;;
27303;SDS011;14791;52.392;13.092;2023-03-01T00:36:40;3.50;;;3.30;;
27303;SDS011;14791;52.392;13.092;2023-03-01T00:39:15;4.50;;;4.10;;
27303;SDS011;14791;52.392;13.092;2023-03-01T00:41:42;3.63;;;3.43;;
27303;SDS011;14791;52.392;13.092;2023-03-01T00:44:11;3.63;;;3.43;;
27303;SDS011;14791;52.392;13.092;2023-03-01T00:46:40;4.60;;;4.17;;
27303;SDS011;14791;52.392;13.092;2023-03-01T00:49:11;3.87;;;3.70;;
27303;SDS011;14791;52.392;13.092;2023-03-01T00:51:40;4.17;;;3.87;;
27303;SDS011;14791;52.392;13.092;2023-03-01T00:54:10;4.57;;;4.23;;
27303;SDS011;14791;52.392;13.092;2023-03-01T00:56:38;4.00;;;3.80;;
27303;SDS011;14791;52.392;13.092;2023-03-01T00:59:07;4.17;;;3.97;;
27303;SDS011;14791;52.392;13.092;2023-03-01T01:01:39;5.17;;;4.70;;
27303;SDS011;14791;52.392;13.092;2023-03-01T01:04:09;4.63;;;4.30;;
27303;SDS011;14791;52.392;13.092;2023-03-01T01:06:42;4.97;;;4.63;;
27303;SDS011;14791;52.392;13.092;2023-03-01T01:09:13;5.00;;;4.60;;
27303;SDS011;14791;52.392;13.092;2023-03-01T01:11:47;4.87;;;4.47;;
27303;SDS011;14791;52.392;13.092;2023-03-01T01:14:19;4.70;;;4.30;;
27303;SDS011;14791;52.392;13.092;2023-03-01T01:16:48;4.23;;;3.93;;
27303;SDS011;14791;52.392;13.092;2023-03-01T01:19:18;4.50;;;4.10;;
27303;SDS011;14791;52.392;13.092;2023-03-01T01:21:47;3.53;;;3.33;;
27303;SDS011;14791;52.392;13.092;2023-03-01T01:24:19;3.50;;;3.40;;
27303;SDS011;14791;52.392;13.092;2023-03-01T01:26:48;4.07;;;3.63;;
27303;SDS011;14791;52.392;13.092;2023-03-01T01:29:17;4.17;;;3.80;;
27303;SDS011;14791;52.392;13.092;2023-03-01T01:31:47;3.80;;;3.60;;
27303;SDS011;14791;52.392;13.092;2023-03-01T01:34:19;4.23;;;4.00;;
27303;SDS011;14791;52.392;13.092;2023-03-01T01:36:50;4.67;;;4.37;;
27303;SDS011;14791;52.392;13.092;2023-03-01T01:39:23;4.87;;;4.43;;
27303;SDS011;14791;52.392;13.092;2023-03-01T01:41:53;4.70;;;4.33;;
27303;SDS011;14791;52.392;13.092;2023-03-01T01:44:24;4.40;;;4.20;;
27303;SDS011;14791;52.392;13.092;2023-03-01T01:47:05;4.10;;;3.90;;
27303;SDS011;14791;52.392;13.092;2023-03-01T01:49:43;4.77;;;4.37;;
27303;SDS011;14791;52.392;13.092;2023-03-01T01:52:36;3.63;;;3.47;;
27303;SDS011;14791;52.392;13.092;2023-03-01T01:55:08;4.53;;;4.23;;
27303;SDS011;14791;52.392;13.092;2023-03-01T01:57:32;4.40;;;4.10;;
27303;SDS011;14791;52.392;13.092;2023-03-01T02:00:06;4.60;;;4.30;;
27303;SDS011;14791;52.392;13.092;2023-03-01T02:02:44;3.70;;;3.50;;
27303;SDS011;14791;52.392;13.092;2023-03-01T02:05:19;4.53;;;4.23;;
27303;SDS011;14791;52.392;13.092;2023-03-01T02:07:47;4.60;;;4.30;;
27303;SDS011;14791;52.392;13.092;2023-03-01T02:10:19;4.63;;;4.23;;
27303;SDS011;14791;52.392;13.092;2023-03-01T02:12:50;4.17;;;3.87;;
27303;SDS011;14791;52.392;13.092;2023-03-01T02:15:21;4.87;;;4.53;;
27303;SDS011;14791;52.392;13.092;2023-03-01T02:17:51;3.87;;;3.67;;
27303;SDS011;14791;52.392;13.092;2023-03-01T02:20:23;4.37;;;4.07;;
27303;SDS011;14791;52.392;13.092;2023-03-01T02:22:54;4.40;;;4.00;;
27303;SDS011;14791;52.392;13.092;2023-03-01T02:26:07;4.10;;;3.90;;
27303;SDS011;14791;52.392;13.092;2023-03-01T02:30:50;3.73;;;3.43;;
27303;SDS011;14791;52.392;13.092;2023-03-01T02:33:39;4.07;;;3.73;;
27303;SDS011;14791;52.392;13.092;2023-03-01T02:36:10;4.63;;;4.30;;
27303;SDS011;14791;52.392;13.092;2023-03-01T02:38:41;4.63;;;4.33;;
27303;SDS011;14791;52.392;13.092;2023-03-01T02:41:11;4.40;;;4.20;;
27303;SDS011;14791;52.392;13.092;2023-03-01T02:43:43;4.40;;;4.20;;
27303;SDS011;14791;52.392;13.092;2023-03-01T02:46:20;3.60;;;3.40;;
27303;SDS011;14791;52.392;13.092;2023-03-01T02:48:49;4.53;;;4.13;;
27303;SDS011;14791;52.392;13.092;2023-03-01T02:51:26;4.13;;;3.93;;
27303;SDS011;14791;52.392;13.092;2023-03-01T02:56:47;4.40;;;4.20;;
27303;SDS011;14791;52.392;13.092;2023-03-01T02:59:19;4.40;;;4.20;;
27303;SDS011;14791;52.392;13.092;2023-03-01T03:01:50;4.20;;;3.90;;
27303;SDS011;14791;52.392;13.092;2023-03-01T03:04:19;3.57;;;3.37;;
27303;SDS011;14791;52.392;13.092;2023-03-01T03:06:50;3.83;;;3.63;;
27303;SDS011;14791;52.392;13.092;2023-03-01T03:09:19;4.10;;;3.90;;
27303;SDS011;14791;52.392;13.092;2023-03-01T03:11:48;4.03;;;3.83;;
27303;SDS011;14791;52.392;13.092;2023-03-01T03:14:18;4.47;;;4.17;;
27303;SDS011;14791;52.392;13.092;2023-03-01T03:16:48;4.40;;;4.17;;
27303;SDS011;14791;52.392;13.092;2023-03-01T03:19:18;3.87;;;3.63;;
27303;SDS011;14791;52.392;13.092;2023-03-01T03:21:47;4.30;;;4.07;;
27303;SDS011;14791;52.392;13.092;2023-03-01T03:24:17;4.33;;;4.03;;
27303;SDS011;14791;52.392;13.092;2023-03-01T03:26:46;3.73;;;3.53;;
27303;SDS011;14791;52.392;13.092;2023-03-01T03:29:16;3.67;;;3.47;;
27303;SDS011;14791;52.392;13.092;2023-03-01T03:31:45;3.93;;;3.73;;
27303;SDS011;14791;52.392;13.092;2023-03-01T03:34:14;4.53;;;4.33;;
27303;SDS011;14791;52.392;13.092;2023-03-01T03:36:44;4.50;;;4.30;;
27303;SDS011;14791;52.392;13.092;2023-03-01T03:39:13;4.53;;;4.20;;
27303;SDS011;14791;52.392;13.092;2023-03-01T03:41:42;5.13;;;4.73;;
27303;SDS011;14791;52.392;13.092;2023-03-01T03:44:11;4.53;;;4.33;;
27303;SDS011;14791;52.392;13.092;2023-03-01T03:46:40;5.03;;;4.40;;
27303;SDS011;14791;52.392;13.092;2023-03-01T03:49:08;4.60;;;4.30;;
27303;SDS011;14791;52.392;13.092;2023-03-01T03:51:37;4.93;;;4.47;;
27303;SDS011;14791;52.392;13.092;2023-03-01T03:54:06;5.30;;;4.90;;
27303;SDS011;14791;52.392;13.092;2023-03-01T03:56:35;4.87;;;4.43;;
27303;SDS011;14791;52.392;13.092;2023-03-01T03:59:04;4.87;;;4.43;;
27303;SDS011;14791;52.392;13.092;2023-03-01T04:01:33;4.60;;;4.20;;
27303;SDS011;14791;52.392;13.092;2023-03-01T04:04:01;3.90;;;3.70;;
27303;SDS011;14791;52.392;13.092;2023-03-01T04:06:31;4.33;;;4.13;;
27303;SDS011;14791;52.392;13.092;2023-03-01T04:09:00;5.17;;;4.87;;
27303;SDS011;14791;52.392;13.092;2023-03-01T04:11:29;5.03;;;4.70;;
27303;SDS011;14791;52.392;13.092;2023-03-01T04:13:58;4.87;;;4.40;;
27303;SDS011;14791;52.392;13.092;2023-03-01T04:16:27;5.10;;;4.70;;
27303;SDS011;14791;52.392;13.092;2023-03-01T04:18:56;4.40;;;4.10;;
27303;SDS011;14791;52.392;13.092;2023-03-01T04:21:26;3.90;;;3.70;;
27303;SDS011;14791;52.392;13.092;2023-03-01T04:23:55;4.13;;;3.83;;
27303;SDS011;14791;52.392;13.092;2023-03-01T04:26:26;4.50;;;4.20;;
27303;SDS011;14791;52.392;13.092;2023-03-01T04:28:55;4.80;;;4.40;;
27303;SDS011;14791;52.392;13.092;2023-03-01T04:31:24;4.23;;;4.03;;
27303;SDS011;14791;52.392;13.092;2023-03-01T04:33:54;4.60;;;4.30;;
27303;SDS011;14791;52.392;13.092;2023-03-01T04:36:24;4.37;;;4.17;;
27303;SDS011;14791;52.392;13.092;2023-03-01T04:38:55;5.33;;;4.33;;
27303;SDS011;14791;52.392;13.092;2023-03-01T04:41:24;4.17;;;3.97;;
27303;SDS011;14791;52.392;13.092;2023-03-01T04:43:53;4.90;;;4.63;;
27303;SDS011;14791;52.392;13.092;2023-03-01T04:46:22;5.20;;;4.77;;
27303;SDS011;14791;52.392;13.092;2023-03-01T04:48:53;4.70;;;4.40;;
27303;SDS011;14791;52.392;13.092;2023-03-01T04:51:22;5.03;;;4.80;;
27303;SDS011;14791;52.392;13.092;2023-03-01T04:53:51;5.53;;;5.07;;
27303;SDS011;14791;52.392;13.092;2023-03-01T04:56:20;5.20;;;4.90;;
27303;SDS011;14791;52.392;13.092;2023-03-01T04:58:52;5.07;;;4.80;;
27303;SDS011;14791;52.392;13.092;2023-03-01T05:01:23;4.40;;;4.20;;
27303;SDS011;14791;52.392;13.092;2023-03-01T05:03:52;5.07;;;4.67;;
27303;SDS011;14791;52.392;13.092;2023-03-01T05:06:21;3.77;;;3.60;;
27303;SDS011;14791;52.392;13.092;2023-03-01T05:08:50;4.13;;;3.83;;
27303;SDS011;14791;52.392;13.092;2023-03-01T05:11:19;5.17;;;4.77;;
27303;SDS011;14791;52.392;13.092;2023-03-01T05:13:48;4.50;;;4.30;;
27303;SDS011;14791;52.392;13.092;2023-03-01T05:16:18;4.23;;;4.00;;
27303;SDS011;14791;52.392;13.092;2023-03-01T05:18:47;4.83;;;4.57;;
27303;SDS011;14791;52.392;13.092;2023-03-01T05:21:17;4.37;;;4.07;;
27303;SDS011;14791;52.392;13.092;2023-03-01T05:23:46;4.20;;;3.83;;
27303;SDS011;14791;52.392;13.092;2023-03-01T05:26:16;5.10;;;4.80;;
27303;SDS011;14791;52.392;13.092;2023-03-01T05:28:48;4.73;;;4.53;;
27303;SDS011;14791;52.392;13.092;2023-03-01T05:31:19;4.87;;;4.57;;
27303;SDS011;14791;52.392;13.092;2023-03-01T05:33:47;3.93;;;3.73;;
27303;SDS011;14791;52.392;13.092;2023-03-01T05:36:16;4.53;;;4.13;;
27303;SDS011;14791;52.392;13.092;2023-03-01T05:38:45;4.90;;;4.60;;
27303;SDS011;14791;52.392;13.092;2023-03-01T05:41:14;4.90;;;4.60;;
27303;SDS011;14791;52.392;13.092;2023-03-01T05:43:44;4.33;;;4.00;;
27303;SDS011;14791;52.392;13.092;2023-03-01T05:46:13;4.73;;;4.43;;
27303;SDS011;14791;52.392;13.092;2023-03-01T05:48:42;4.70;;;4.37;;
27303;SDS011;14791;52.392;13.092;2023-03-01T05:51:11;4.27;;;4.07;;
27303;SDS011;14791;52.392;13.092;2023-03-01T05:53:40;4.57;;;4.37;;
27303;SDS011;14791;52.392;13.092;2023-03-01T05:56:08;4.10;;;3.90;;
27303;SDS011;14791;52.392;13.092;2023-03-01T05:58:38;4.57;;;4.13;;
27303;SDS011;14791;52.392;13.092;2023-03-01T06:01:10;5.73;;;5.23;;
27303;SDS011;14791;52.392;13.092;2023-03-01T06:03:40;5.67;;;5.17;;
27303;SDS011;14791;52.392;13.092;2023-03-01T06:06:10;6.07;;;5.57;;
27303;SDS011;14791;52.392;13.092;2023-03-01T06:08:38;6.10;;;5.60;;
27303;SDS011;14791;52.392;13.092;2023-03-01T06:11:07;4.80;;;4.50;;
27303;SDS011;14791;52.392;13.092;2023-03-01T06:13:37;6.27;;;5.87;;
27303;SDS011;14791;52.392;13.092;2023-03-01T06:16:06;5.63;;;5.30;;
27303;SDS011;14791;52.392;13.092;2023-03-01T06:18:36;5.67;;;5.27;;
27303;SDS011;14791;52.392;13.092;2023-03-01T06:21:06;5.87;;;5.43;;
27303;SDS011;14791;52.392;13.092;2023-03-01T06:23:36;5.33;;;4.93;;
27303;SDS011;14791;52.392;13.092;2023-03-01T06:26:05;5.17;;;4.87;;
27303;SDS011;14791;52.392;13.092;2023-03-01T06:28:35;5.87;;;5.43;;
27303;SDS011;14791;52.392;13.092;2023-03-01T06:31:04;5.77;;;5.40;;
27303;SDS011;14791;52.392;13.092;2023-03-01T06:33:35;5.50;;;5.10;;
27303;SDS011;14791;52.392;13.092;2023-03-01T06:36:04;6.43;;;5.70;;
27303;SDS011;14791;52.392;13.092;2023-03-01T06:38:53;5.67;;;5.17;;
27303;SDS011;14791;52.392;13.092;2023-03-01T06:41:22;4.80;;;4.57;;
27303;SDS011;14791;52.392;13.092;2023-03-01T06:43:51;4.70;;;4.40;;
27303;SDS011;14791;52.392;13.092;2023-03-01T06:46:21;6.57;;;5.97;;
27303;SDS011;14791;52.392;13.092;2023-03-01T06:48:50;6.37;;;5.97;;
27303;SDS011;14791;52.392;13.092;2023-03-01T06:51:19;6.80;;;6.30;;
27303;SDS011;14791;52.392;13.092;2023-03-01T06:54:09;6.43;;;5.83;;
27303;SDS011;14791;52.392;13.092;2023-03-01T06:56:38;5.97;;;5.50;;
27303;SDS011;14791;52.392;13.092;2023-03-01T06:59:07;5.77;;;5.37;;
27303;SDS011;14791;52.392;13.092;2023-03-01T07:01:36;6.67;;;6.23;;
27303;SDS011;14791;52.392;13.092;2023-03-01T07:04:06;6.63;;;6.13;;
27303;SDS011;14791;52.392;13.092;2023-03-01T07:06:34;6.67;;;6.17;;
27303;SDS011;14791;52.392;13.092;2023-03-01T07:09:03;6.33;;;5.83;;
27303;SDS011;14791;52.392;13.092;2023-03-01T07:11:32;7.67;;;7.00;;
27303;SDS011;14791;52.392;13.092;2023-03-01T07:14:02;7.60;;;6.93;;
27303;SDS011;14791;52.392;13.092;2023-03-01T07:16:32;7.30;;;6.60;;
27303;SDS011;14791;52.392;13.092;2023-03-01T07:19:00;5.93;;;5.53;;
27303;SDS011;14791;52.392;13.092;2023-03-01T07:21:29;6.07;;;5.77;;
27303;SDS011;14791;52.392;13.092;2023-03-01T07:23:59;6.40;;;6.00;;
27303;SDS011;14791;52.392;13.092;2023-03-01T07:26:28;6.13;;;5.83;;
27303;SDS011;14791;52.392;13.092;2023-03-01T07:29:06;6.70;;;6.30;;
27303;SDS011;14791;52.392;13.092;2023-03-01T07:31:28;7.23;;;6.73;;
27303;SDS011;14791;52.392;13.092;2023-03-01T07:33:57;7.23;;;6.63;;
27303;SDS011;14791;52.392;13.092;2023-03-01T07:36:26;10.37;;;7.73;;
27303;SDS011;14791;52.392;13.092;2023-03-01T07:38:55;9.77;;;7.60;;
27303;SDS011;14791;52.392;13.092;2023-03-01T07:41:24;9.17;;;8.07;;
27303;SDS011;14791;52.392;13.092;2023-03-01T07:43:54;8.27;;;7.47;;
27303;SDS011;14791;52.392;13.092;2023-03-01T07:46:23;8.00;;;7.30;;
27303;SDS011;14791;52.392;13.092;2023-03-01T07:48:52;8.07;;;7.37;;
27303;SDS011;14791;52.392;13.092;2023-03-01T07:51:21;9.43;;;8.17;;
27303;SDS011;14791;52.392;13.092;2023-03-01T07:53:51;8.70;;;7.90;;
27303;SDS011;14791;52.392;13.092;2023-03-01T07:56:20;8.30;;;7.50;;
27303;SDS011;14791;52.392;13.092;2023-03-01T07:58:49;7.20;;;6.60;;
27303;SDS011;14791;52.392;13.092;2023-03-01T08:01:19;7.23;;;6.63;;
27303;SDS011;14791;52.392;13.092;2023-03-01T08:03:48;7.43;;;6.80;;
27303;SDS011;14791;52.392;13.092;2023-03-01T08:06:17;5.73;;;5.43;;
27303;SDS011;14791;52.392;13.092;2023-03-01T08:08:47;7.03;;;6.53;;
27303;SDS011;14791;52.392;13.092;2023-03-01T08:11:18;7.33;;;6.73;;
27303;SDS011;14791;52.392;13.092;2023-03-01T08:13:47;8.43;;;7.70;;
27303;SDS011;14791;52.392;13.092;2023-03-01T08:16:16;6.67;;;6.27;;
27303;SDS011;14791;52.392;13.092;2023-03-01T08:18:45;7.40;;;6.73;;
27303;SDS011;14791;52.392;13.092;2023-03-01T08:21:16;6.30;;;5.93;;
27303;SDS011;14791;52.392;13.092;2023-03-01T08:23:46;6.57;;;6.17;;
27303;SDS011;14791;52.392;13.092;2023-03-01T08:26:16;6.93;;;6.23;;
27303;SDS011;14791;52.392;13.092;2023-03-01T08:28:48;6.23;;;5.93;;
27303;SDS011;14791;52.392;13.092;2023-03-01T08:31:21;5.67;;;5.37;;
27303;SDS011;14791;52.392;13.092;2023-03-01T08:33:54;5.97;;;5.57;;
27303;SDS011;14791;52.392;13.092;2023-03-01T08:36:30;5.60;;;5.20;;
27303;SDS011;14791;52.392;13.092;2023-03-01T08:38:56;6.40;;;5.90;;
27303;SDS011;14791;52.392;13.092;2023-03-01T08:41:25;6.27;;;5.80;;
27303;SDS011;14791;52.392;13.092;2023-03-01T08:43:55;5.30;;;5.00;;
27303;SDS011;14791;52.392;13.092;2023-03-01T08:46:33;5.30;;;5.00;;
27303;SDS011;14791;52.392;13.092;2023-03-01T08:49:05;5.07;;;4.73;;
27303;SDS011;14791;52.392;13.092;2023-03-01T08:51:35;4.70;;;4.50;;
27303;SDS011;14791;52.392;13.092;2023-03-01T08:54:04;4.73;;;4.53;;
27303;SDS011;14791;52.392;13.092;2023-03-01T08:56:35;4.90;;;4.70;;
27303;SDS011;14791;52.392;13.092;2023-03-01T08:59:04;4.77;;;4.37;;
27303;SDS011;14791;52.392;13.092;2023-03-01T09:01:33;5.13;;;4.93;;
27303;SDS011;14791;52.392;13.092;2023-03-01T09:04:04;5.60;;;5.30;;
27303;SDS011;14791;52.392;13.092;2023-03-01T09:06:33;5.50;;;5.17;;
27303;SDS011;14791;52.392;13.092;2023-03-01T09:09:03;4.90;;;4.60;;
27303;SDS011;14791;52.392;13.092;2023-03-01T09:11:33;5.03;;;4.83;;
27303;SDS011;14791;52.392;13.092;2023-03-01T09:14:04;5.10;;;4.60;;
27303;SDS011;14791;52.392;13.092;2023-03-01T09:16:33;4.80;;;4.60;;
27303;SDS011;14791;52.392;13.092;2023-03-01T09:19:03;4.90;;;4.60;;
27303;SDS011;14791;52.392;13.092;2023-03-01T09:21:32;4.27;;;4.07;;
27303;SDS011;14791;52.392;13.092;2023-03-01T09:24:01;4.40;;;4.20;;
27303;SDS011;14791;52.392;13.092;2023-03-01T09:26:31;4.77;;;4.33;;
27303;SDS011;14791;52.392;13.092;2023-03-01T09:29:00;4.60;;;4.30;;
27303;SDS011;14791;52.392;13.092;2023-03-01T09:31:29;4.77;;;4.37;;
27303;SDS011;14791;52.392;13.092;2023-03-01T09:33:58;4.40;;;4.20;;
27303;SDS011;14791;52.392;13.092;2023-03-01T09:36:28;4.20;;;3.90;;
27303;SDS011;14791;52.392;13.092;2023-03-01T09:38:57;3.33;;;3.23;;
27303;SDS011;14791;52.392;13.092;2023-03-01T09:44:24;2.90;;;2.70;;
27303;SDS011;14791;52.392;13.092;2023-03-01T09:46:50;3.20;;;3.00;;
27303;SDS011;14791;52.392;13.092;2023-03-01T09:49:24;2.90;;;2.80;;
27303;SDS011;14791;52.392;13.092;2023-03-01T09:51:59;2.63;;;2.53;;
27303;SDS011;14791;52.392;13.092;2023-03-01T09:54:29;3.63;;;3.33;;
27303;SDS011;14791;52.392;13.092;2023-03-01T09:57:24;3.00;;;2.90;;
27303;SDS011;14791;52.392;13.092;2023-03-01T09:59:52;2.93;;;2.83;;
27303;SDS011;14791;52.392;13.092;2023-03-01T10:02:38;2.87;;;2.67;;
27303;SDS011;14791;52.392;13.092;2023-03-01T10:05:14;3.27;;;3.17;;
27303;SDS011;14791;52.392;13.092;2023-03-01T10:07:58;2.67;;;2.57;;
27303;SDS011;14791;52.392;13.092;2023-03-01T10:10:33;2.93;;;2.83;;
27303;SDS011;14791;52.392;13.092;2023-03-01T10:13:21;2.43;;;2.33;;
27303;SDS011;14791;52.392;13.092;2023-03-01T10:15:57;2.30;;;2.20;;
27303;SDS011;14791;52.392;13.092;2023-03-01T10:18:28;2.20;;;2.10;;
27303;SDS011;14791;52.392;13.092;2023-03-01T10:21:00;2.57;;;2.47;;
27303;SDS011;14791;52.392;13.092;2023-03-01T10:23:32;2.33;;;2.23;;
27303;SDS011;14791;52.392;13.092;2023-03-01T10:26:14;2.83;;;2.20;;
27303;SDS011;14791;52.392;13.092;2023-03-01T10:29:03;2.60;;;2.50;;
27303;SDS011;14791;52.392;13.092;2023-03-01T10:31:43;2.17;;;2.07;;
27303;SDS011;14791;52.392;13.092;2023-03-01T10:34:20;2.60;;;2.50;;
27303;SDS011;14791;52.392;13.092;2023-03-01T10:36:51;2.70;;;2.60;;
27303;SDS011;14791;52.392;13.092;2023-03-01T10:39:23;2.60;;;2.50;;
27303;SDS011;14791;52.392;13.092;2023-03-01T10:41:55;2.50;;;2.30;;
27303;SDS011;14791;52.392;13.092;2023-03-01T10:44:45;2.43;;;2.33;;
27303;SDS011;14791;52.392;13.092;2023-03-01T10:47:16;3.43;;;2.07;;
27303;SDS011;14791;52.392;13.092;2023-03-01T10:50:03;2.67;;;2.57;;
27303;SDS011;14791;52.392;13.092;2023-03-01T10:52:37;2.27;;;2.07;;
27303;SDS011;14791;52.392;13.092;2023-03-01T10:57:50;2.53;;;2.43;;
27303;SDS011;14791;52.392;13.092;2023-03-01T11:00:45;2.80;;;2.70;;
27303;SDS011;14791;52.392;13.092;2023-03-01T11:03:18;2.80;;;2.60;;
27303;SDS011;14791;52.392;13.092;2023-03-01T11:08:34;2.60;;;2.50;;
27303;SDS011;14791;52.392;13.092;2023-03-01T11:11:06;2.50;;;2.40;;
27303;SDS011;14791;52.392;13.092;2023-03-01T11:13:56;2.00;;;1.90;;
27303;SDS011;14791;52.392;13.092;2023-03-01T11:16:31;2.13;;;2.03;;
27303;SDS011;14791;52.392;13.092;2023-03-01T11:21:49;2.37;;;2.27;;
27303;SDS011;14791;52.392;13.092;2023-03-01T11:24:46;2.50;;;2.40;;
27303;SDS011;14791;52.392;13.092;2023-03-01T11:27:28;1.93;;;1.93;;
27303;SDS011;14791;52.392;13.092;2023-03-01T11:30:00;2.37;;;2.27;;
27303;SDS011;14791;52.392;13.092;2023-03-01T11:32:51;2.20;;;2.10;;
27303;SDS011;14791;52.392;13.092;2023-03-01T11:35:23;2.53;;;2.43;;
27303;SDS011;14791;52.392;13.092;2023-03-01T11:37:59;2.50;;;2.40;;
27303;SDS011;14791;52.392;13.092;2023-03-01T11:43:14;1.80;;;1.80;;
27303;SDS011;14791;52.392;13.092;2023-03-01T11:52:11;2.40;;;2.30;;
27303;SDS011;14791;52.392;13.092;2023-03-01T11:58:00;2.90;;;2.70;;
27303;SDS011;14791;52.392;13.092;2023-03-01T12:00:43;2.30;;;2.20;;
27303;SDS011;14791;52.392;13.092;2023-03-01T12:03:33;2.60;;;2.50;;
27303;SDS011;14791;52.392;13.092;2023-03-01T12:06:42;2.10;;;2.00;;
27303;SDS011;14791;52.392;13.092;2023-03-01T12:09:29;2.47;;;2.37;;
27303;SDS011;14791;52.392;13.092;2023-03-01T12:20:49;2.27;;;2.20;;
27303;SDS011;14791;52.392;13.092;2023-03-01T12:23:20;3.70;;;2.93;;
27303;SDS011;14791;52.392;13.092;2023-03-01T12:26:10;2.57;;;2.47;;
27303;SDS011;14791;52.392;13.092;2023-03-01T12:28:51;3.30;;;3.00;;
27303;SDS011;14791;52.392;13.092;2023-03-01T12:31:32;2.60;;;2.50;;
27303;SDS011;14791;52.392;13.092;2023-03-01T12:42:38;3.20;;;3.10;;
27303;SDS011;14791;52.392;13.092;2023-03-01T12:48:11;2.60;;;2.40;;
27303;SDS011;14791;52.392;13.092;2023-03-01T12:50:57;2.20;;;2.10;;
27303;SDS011;14791;52.392;13.092;2023-03-01T12:53:36;2.67;;;2.57;;
27303;SDS011;14791;52.392;13.092;2023-03-01T12:56:05;3.10;;;3.00;;
27303;SDS011;14791;52.392;13.092;2023-03-01T12:58:35;2.30;;;2.20;;
27303;SDS011;14791;52.392;13.092;2023-03-01T13:15:27;1.72;;;1.72;;
27303;SDS011;14791;52.392;13.092;2023-03-01T13:18:00;1.90;;;1.80;;
27303;SDS011;14791;52.392;13.092;2023-03-01T13:20:57;1.98;;;1.95;;
27303;SDS011;14791;52.392;13.092;2023-03-01T13:33:50;2.00;;;1.90;;
27303;SDS011;14791;52.392;13.092;2023-03-01T13:41:59;1.60;;;1.60;;
27303;SDS011;14791;52.392;13.092;2023-03-01T13:44:32;2.15;;;2.05;;
27303;SDS011;14791;52.392;13.092;2023-03-01T13:49:47;2.20;;;2.10;;
27303;SDS011;14791;52.392;13.092;2023-03-01T13:54:59;1.70;;;1.60;;
27303;SDS011;14791;52.392;13.092;2023-03-01T13:57:32;1.72;;;1.70;;
27303;SDS011;14791;52.392;13.092;2023-03-01T14:00:02;1.72;;;1.72;;
27303;SDS011;14791;52.392;13.092;2023-03-01T14:02:31;1.87;;;1.87;;
27303;SDS011;14791;52.392;13.092;2023-03-01T14:05:01;1.60;;;1.60;;
27303;SDS011;14791;52.392;13.092;2023-03-01T14:07:30;1.60;;;1.60;;
27303;SDS011;14791;52.392;13.092;2023-03-01T14:10:03;1.45;;;1.45;;
27303;SDS011;14791;52.392;13.092;2023-03-01T14:12:51;1.62;;;1.60;;
27303;SDS011;14791;52.392;13.092;2023-03-01T14:15:29;1.77;;;1.77;;
27303;SDS011;14791;52.392;13.092;2023-03-01T14:18:12;1.70;;;1.70;;
27303;SDS011;14791;52.392;13.092;2023-03-01T14:20:43;2.25;;;2.25;;
27303;SDS011;14791;52.392;13.092;2023-03-01T14:23:16;1.62;;;1.52;;
27303;SDS011;14791;52.392;13.092;2023-03-01T14:25:50;1.40;;;1.40;;
27303;SDS011;14791;52.392;13.092;2023-03-01T14:28:23;1.60;;;1.60;;
27303;SDS011;14791;52.392;13.092;2023-03-01T14:30:56;1.90;;;1.85;;
27303;SDS011;14791;52.392;13.092;2023-03-01T14:33:33;1.90;;;1.87;;
27303;SDS011;14791;52.392;13.092;2023-03-01T14:36:05;2.22;;;2.12;;
27303;SDS011;14791;52.392;13.092;2023-03-01T14:38:46;2.00;;;1.90;;
27303;SDS011;14791;52.392;13.092;2023-03-01T14:41:16;1.95;;;1.90;;
27303;SDS011;14791;52.392;13.092;2023-03-01T14:43:59;1.80;;;1.80;;
27303;SDS011;14791;52.392;13.092;2023-03-01T14:49:10;1.82;;;1.82;;
27303;SDS011;14791;52.392;13.092;2023-03-01T14:51:43;1.67;;;1.60;;
27303;SDS011;14791;52.392;13.092;2023-03-01T14:54:23;1.72;;;1.67;;
27303;SDS011;14791;52.392;13.092;2023-03-01T14:57:17;1.90;;;1.80;;
27303;SDS011;14791;52.392;13.092;2023-03-01T14:59:52;1.60;;;1.60;;
27303;SDS011;14791;52.392;13.092;2023-03-01T15:02:26;1.52;;;1.52;;
27303;SDS011;14791;52.392;13.092;2023-03-01T15:04:58;1.67;;;1.67;;
27303;SDS011;14791;52.392;13.092;2023-03-01T15:07:33;2.08;;;1.90;;
27303;SDS011;14791;52.392;13.092;2023-03-01T15:10:04;1.90;;;1.80;;
27303;SDS011;14791;52.392;13.092;2023-03-01T15:12:35;1.47;;;1.47;;
27303;SDS011;14791;52.392;13.092;2023-03-01T15:17:55;2.02;;;2.02;;
27303;SDS011;14791;52.392;13.092;2023-03-01T15:20:27;1.85;;;1.85;;
27303;SDS011;14791;52.392;13.092;2023-03-01T15:22:59;1.77;;;1.77;;
27303;SDS011;14791;52.392;13.092;2023-03-01T15:25:29;2.37;;;2.17;;
27303;SDS011;14791;52.392;13.092;2023-03-01T15:28:00;1.90;;;1.90;;
27303;SDS011;14791;52.392;13.092;2023-03-01T15:30:34;1.72;;;1.72;;
27303;SDS011;14791;52.392;13.092;2023-03-01T15:35:56;2.75;;;2.65;;
27303;SDS011;14791;52.392;13.092;2023-03-01T15:41:26;1.85;;;1.77;;
27303;SDS011;14791;52.392;13.092;2023-03-01T15:43:59;1.87;;;1.87;;
27303;SDS011;14791;52.392;13.092;2023-03-01T15:46:31;1.75;;;1.75;;
27303;SDS011;14791;52.392;13.092;2023-03-01T15:49:03;2.87;;;2.77;;
27303;SDS011;14791;52.392;13.092;2023-03-01T15:51:48;2.30;;;2.12;;
27303;SDS011;14791;52.392;13.092;2023-03-01T15:54:18;2.25;;;2.15;;
27303;SDS011;14791;52.392;13.092;2023-03-01T15:56:50;2.08;;;1.98;;
27303;SDS011;14791;52.392;13.092;2023-03-01T15:59:19;2.33;;;2.22;;
27303;SDS011;14791;52.392;13.092;2023-03-01T16:01:49;1.90;;;1.90;;
27303;SDS011;14791;52.392;13.092;2023-03-01T16:04:18;2.30;;;1.90;;
27303;SDS011;14791;52.392;13.092;2023-03-01T16:06:50;2.50;;;2.40;;
27303;SDS011;14791;52.392;13.092;2023-03-01T16:09:28;1.67;;;1.57;;
27303;SDS011;14791;52.392;13.092;2023-03-01T16:11:53;2.37;;;2.17;;
27303;SDS011;14791;52.392;13.092;2023-03-01T16:14:22;2.02;;;1.92;;
27303;SDS011;14791;52.392;13.092;2023-03-01T16:16:51;1.80;;;1.72;;
27303;SDS011;14791;52.392;13.092;2023-03-01T16:19:20;9.75;;;2.02;;
27303;SDS011;14791;52.392;13.092;2023-03-01T16:21:49;1.70;;;1.70;;
27303;SDS011;14791;52.392;13.092;2023-03-01T16:24:18;1.57;;;1.57;;
27303;SDS011;14791;52.392;13.092;2023-03-01T16:26:47;3.55;;;2.00;;
27303;SDS011;14791;52.392;13.092;2023-03-01T16:29:16;2.67;;;2.47;;
27303;SDS011;14791;52.392;13.092;2023-03-01T16:31:45;1.77;;;1.75;;
27303;SDS011;14791;52.392;13.092;2023-03-01T16:34:14;2.60;;;2.50;;
27303;SDS011;14791;52.392;13.092;2023-03-01T16:36:43;2.10;;;2.00;;
27303;SDS011;14791;52.392;13.092;2023-03-01T16:39:12;2.63;;;2.30;;